Time;durP1;ratioP1;P1;durP2;ratioP2;P2;SDS_P1;SDS_P2;PMS_P1;PMS_P2;Temp;Humidity;BMP_temperature;BMP_pressure;BME280_temperature;BME280_humidity;BME280_pressure;Samples;Min_cycle;Max_cycle;Signal;HPM_P1;HPM_P2
2023/08/25 00:02:28;;;;;;;4.95;1.80;;;;;;;17.61;72.98;98533.91;4887162;29;20665;-82
2023/08/25 00:05:12;;;;;;;4.53;1.77;;;;;;;17.54;72.72;98537.56;4884160;29;20051;-82
2023/08/25 00:07:56;;;;;;;4.97;1.40;;;;;;;17.58;73.02;98534.41;4885093;29;20056;-84
2023/08/25 00:10:40;;;;;;;5.38;1.83;;;;;;;17.78;72.39;98533.75;4885108;29;20570;-82
2023/08/25 00:13:24;;;;;;;8.77;1.85;;;;;;;17.76;72.09;98522.59;4888020;29;20087;-82
2023/08/25 00:16:09;;;;;;;3.53;1.40;;;;;;;17.92;71.75;98529.59;4886823;29;20092;-83
2023/08/25 00:18:53;;;;;;;5.68;1.67;;;;;;;17.90;72.23;98531.72;4891536;29;20048;-82
2023/08/25 00:21:38;;;;;;;2.53;1.45;;;;;;;17.73;72.62;98526.56;4890396;29;20047;-82
2023/08/25 00:24:22;;;;;;;4.80;1.50;;;;;;;17.87;72.06;98520.81;4893978;29;20060;-83
2023/08/25 00:27:06;;;;;;;5.60;1.48;;;;;;;17.93;72.00;98520.59;4890470;29;20104;-82
2023/08/25 00:29:52;;;;;;;2.47;1.30;;;;;;;17.81;72.21;98507.50;4887384;29;20108;-83
2023/08/25 00:32:38;;;;;;;10.27;1.58;;;;;;;18.11;71.31;98513.28;4894210;29;20120;-84
2023/08/25 00:35:23;;;;;;;2.15;1.60;;;;;;;18.12;71.68;98520.19;4896263;29;20123;-84
2023/08/25 00:38:07;;;;;;;6.70;1.73;;;;;;;17.63;72.55;98507.91;4891499;29;20048;-84
2023/08/25 00:40:51;;;;;;;5.10;1.40;;;;;;;17.68;72.48;98511.41;4890830;29;20599;-83
2023/08/25 00:43:35;;;;;;;3.95;1.50;;;;;;;17.26;73.59;98523.50;4890634;29;20047;-83
2023/08/25 00:46:20;;;;;;;6.53;1.83;;;;;;;17.64;73.15;98518.28;4890811;29;20515;-84
2023/08/25 00:49:04;;;;;;;4.70;1.77;;;;;;;17.89;72.26;98511.53;4894813;29;20518;-83
2023/08/25 00:51:51;;;;;;;5.78;1.90;;;;;;;17.78;72.61;98520.47;4887113;29;20048;-83
2023/08/25 00:54:36;;;;;;;1.90;1.60;;;;;;;17.97;71.95;98531.50;4890623;29;20055;-82
2023/08/25 00:57:22;;;;;;;5.65;2.05;;;;;;;17.54;73.11;98532.25;4887280;29;20047;-85
2023/08/25 01:00:09;;;;;;;3.88;2.10;;;;;;;17.69;72.76;98520.97;4887450;29;20096;-83
2023/08/25 01:02:54;;;;;;;6.32;2.05;;;;;;;17.57;73.16;98517.66;4887267;29;20104;-84
2023/08/25 01:05:39;;;;;;;6.80;2.05;;;;;;;17.61;73.08;98524.09;4890982;29;20108;-84
2023/08/25 01:08:24;;;;;;;8.40;2.35;;;;;;;17.97;72.80;98520.88;4887470;29;20043;-82
2023/08/25 01:11:36;;;;;;;6.60;2.67;;;;;;;17.51;73.71;98531.97;4887745;29;20051;-84
2023/08/25 01:14:53;;;;;;;5.90;2.72;;;;;;;17.48;74.06;98522.63;4885374;29;20096;-83
2023/08/25 01:18:03;;;;;;;5.22;2.60;;;;;;;17.33;74.55;98522.53;4891677;29;20181;-84
2023/08/25 01:20:48;;;;;;;5.97;3.25;;;;;;;17.44;74.32;98507.50;4885245;29;20044;-82
2023/08/25 01:23:49;;;;;;;8.73;3.20;;;;;;;17.17;75.36;98513.59;4890592;29;20043;-83
2023/08/25 01:26:34;;;;;;;6.13;2.83;;;;;;;17.27;75.43;98514.50;4888912;29;20056;-83
2023/08/25 01:29:18;;;;;;;10.13;3.42;;;;;;;17.09;75.86;98509.56;4890430;29;20116;-82
2023/08/25 01:32:02;;;;;;;7.13;3.55;;;;;;;17.25;75.63;98513.16;4887809;29;20067;-84
2023/08/25 01:34:47;;;;;;;5.25;3.47;;;;;;;17.22;75.65;98511.81;4888077;29;20091;-84
2023/08/25 01:37:35;;;;;;;5.78;2.97;;;;;;;17.27;75.69;98509.19;4885010;29;20096;-85
2023/08/25 01:40:32;;;;;;;5.65;3.38;;;;;;;17.13;75.84;98508.03;4890525;29;20052;-84
2023/08/25 01:43:20;;;;;;;6.72;3.38;;;;;;;17.02;76.13;98503.66;4890160;29;20113;-84
2023/08/25 01:46:03;;;;;;;6.47;2.75;;;;;;;17.13;75.91;98500.84;4889250;29;20064;-82
2023/08/25 01:48:51;;;;;;;8.07;3.50;;;;;;;17.01;76.25;98499.41;4890062;29;20060;-84
2023/08/25 01:51:35;;;;;;;10.27;4.35;;;;;;;17.16;75.66;98499.56;4886998;29;20193;-84
2023/08/25 01:54:19;;;;;;;8.07;4.13;;;;;;;16.96;76.66;98487.69;4887232;29;20048;-83
2023/08/25 01:57:03;;;;;;;5.93;3.63;;;;;;;17.06;76.31;98491.50;4885695;29;20104;-83
2023/08/25 01:59:47;;;;;;;8.10;4.10;;;;;;;16.87;76.55;98497.13;4888630;29;20089;-84
2023/08/25 02:02:31;;;;;;;8.38;3.58;;;;;;;16.90;76.63;98498.47;4887035;29;20391;-83
2023/08/25 02:05:15;;;;;;;5.47;3.42;;;;;;;16.93;76.29;98490.84;4882976;29;20048;-83
2023/08/25 02:07:59;;;;;;;5.22;2.83;;;;;;;16.96;76.30;98495.63;4886474;29;20518;-84
2023/08/25 02:10:44;;;;;;;9.10;3.13;;;;;;;16.76;76.56;98498.06;4889337;29;20563;-84
2023/08/25 02:13:28;;;;;;;8.45;2.97;;;;;;;16.84;76.62;98494.97;4886070;29;20089;-84
2023/08/25 02:16:12;;;;;;;8.70;3.10;;;;;;;16.96;75.81;98492.97;4889326;29;20047;-83
2023/08/25 02:18:56;;;;;;;7.00;2.63;;;;;;;17.26;74.49;98489.03;4888956;29;20043;-83
2023/08/25 02:21:40;;;;;;;5.38;2.78;;;;;;;17.01;74.94;98489.63;4887353;29;20407;-85
2023/08/25 02:24:24;;;;;;;6.70;2.35;;;;;;;17.19;74.11;98488.44;4882729;29;20460;-83
2023/08/25 02:27:08;;;;;;;5.63;2.50;;;;;;;17.05;74.58;98497.84;4890244;29;20100;-84
2023/08/25 02:29:52;;;;;;;;;;;;;;;16.75;74.67;98496.47;4888429;29;20082;-83
2023/08/25 02:32:36;;;;;;;4.95;2.65;;;;;;;16.90;74.10;98488.69;4885095;29;20002;-83
2023/08/25 02:35:21;;;;;;;6.53;2.55;;;;;;;17.01;73.49;98478.19;4888326;29;20073;-84
2023/08/25 02:38:07;;;;;;;5.28;2.47;;;;;;;16.95;73.85;98490.56;4888259;29;20465;-84
2023/08/25 02:40:51;;;;;;;6.90;2.40;;;;;;;17.01;73.20;98483.50;4885616;29;20044;-83
2023/08/25 02:43:35;;;;;;;5.45;2.40;;;;;;;16.99;73.26;98475.78;4887431;29;20472;-83
2023/08/25 02:46:18;;;;;;;4.20;2.47;;;;;;;17.04;72.98;98467.09;4889431;29;20470;-82
2023/08/25 02:49:03;;;;;;;6.65;2.50;;;;;;;17.09;72.67;98475.91;4886584;29;20112;-83
2023/08/25 02:51:46;;;;;;;3.70;2.20;;;;;;;17.02;73.12;98469.19;4882818;29;20173;-82
2023/08/25 02:54:30;;;;;;;6.35;2.38;;;;;;;17.16;72.38;98464.28;4888160;29;20106;-82
2023/08/25 02:57:14;;;;;;;6.80;2.45;;;;;;;17.25;72.12;98462.78;4887514;29;20050;-82
2023/08/25 02:59:58;;;;;;;3.78;2.30;;;;;;;17.33;72.11;98464.19;4888886;29;20052;-83
2023/08/25 03:02:43;;;;;;;5.05;2.30;;;;;;;17.28;71.94;98456.97;4890154;29;20056;-83
2023/08/25 03:05:27;;;;;;;3.13;2.20;;;;;;;17.40;71.91;98460.25;4889683;29;20052;-83
2023/08/25 03:08:15;;;;;;;6.15;2.20;;;;;;;17.34;72.20;98460.47;4888357;29;20540;-82
2023/08/25 03:11:02;;;;;;;5.53;1.90;;;;;;;17.47;71.66;98464.53;4884834;29;20056;-82
2023/08/25 03:13:47;;;;;;;8.98;2.75;;;;;;;17.38;72.39;98450.94;4887120;29;20100;-82
2023/08/25 03:16:31;;;;;;;7.88;3.00;;;;;;;17.50;72.04;98454.22;4885870;29;20071;-82
2023/08/25 03:19:15;;;;;;;9.00;3.65;;;;;;;17.41;72.66;98453.91;4885493;29;20398;-81
2023/08/25 03:21:59;;;;;;;11.52;3.40;;;;;;;17.62;72.18;98446.09;4882825;29;20193;-83
2023/08/25 03:24:43;;;;;;;8.25;3.50;;;;;;;17.48;72.72;98443.03;4890563;29;20420;-83
2023/08/25 03:27:28;;;;;;;8.80;4.68;;;;;;;17.53;73.30;98432.47;4889421;29;20079;-82
2023/08/25 03:30:12;;;;;;;7.55;4.10;;;;;;;17.39;74.51;98436.63;4886548;29;20052;-83
2023/08/25 03:32:56;;;;;;;8.70;4.63;;;;;;;17.56;73.86;98431.97;4890926;29;20056;-83
2023/08/25 03:35:40;;;;;;;9.02;4.60;;;;;;;17.40;74.75;98427.59;4880603;29;20067;-82
2023/08/25 03:38:24;;;;;;;11.43;6.35;;;;;;;17.52;74.99;98427.41;4884904;29;20419;-83
2023/08/25 03:41:08;;;;;;;8.55;5.90;;;;;;;17.76;75.05;98432.34;4887974;29;20055;-85
2023/08/25 03:43:52;;;;;;;10.13;7.30;;;;;;;17.63;76.35;98423.78;4882152;29;20056;-82
2023/08/25 03:46:36;;;;;;;11.48;7.45;;;;;;;17.98;75.65;98418.94;4886297;29;20508;-83
2023/08/25 03:49:20;;;;;;;12.55;7.80;;;;;;;17.81;76.70;98416.47;4889247;29;20047;-83
2023/08/25 03:52:05;;;;;;;12.52;7.60;;;;;;;18.04;76.27;98415.25;4887125;29;20088;-83
2023/08/25 03:54:49;;;;;;;13.88;7.95;;;;;;;18.33;75.69;98416.69;4883817;29;20395;-81
2023/08/25 03:57:33;;;;;;;12.90;7.80;;;;;;;18.46;74.77;98405.59;4883955;29;20403;-84
2023/08/25 04:00:17;;;;;;;12.77;8.00;;;;;;;18.32;75.12;98413.25;4887460;29;20407;-83
2023/08/25 04:03:03;;;;;;;9.50;7.80;;;;;;;18.45;74.62;98413.81;4883283;29;20056;-84
2023/08/25 04:05:48;;;;;;;9.52;7.57;;;;;;;18.37;74.43;98413.25;4887655;29;20060;-84
2023/08/25 04:08:32;;;;;;;14.55;8.88;;;;;;;18.38;74.85;98430.81;4886303;29;20056;-83
2023/08/25 04:11:16;;;;;;;15.32;8.43;;;;;;;18.15;75.32;98421.41;4885209;29;20067;-85
2023/08/25 04:14:00;;;;;;;14.60;8.82;;;;;;;18.07;75.66;98435.19;4884927;29;20077;-83
2023/08/25 04:16:44;;;;;;;11.20;7.82;;;;;;;18.12;75.23;98429.91;4882477;29;20523;-85
2023/08/25 04:19:28;;;;;;;12.27;9.05;;;;;;;18.04;76.04;98431.19;4888377;29;20040;-85
2023/08/25 04:22:12;;;;;;;10.55;7.82;;;;;;;18.15;75.52;98433.91;4885411;29;20181;-83
2023/08/25 04:24:56;;;;;;;12.63;8.50;;;;;;;17.99;75.98;98428.50;4884636;29;20063;-84
2023/08/25 04:27:41;;;;;;;16.45;9.45;;;;;;;18.10;75.68;98424.06;4883842;29;20056;-85
2023/08/25 04:30:24;;;;;;;10.63;7.70;;;;;;;17.76;76.16;98414.56;4887074;29;20417;-84
2023/08/25 04:33:11;;;;;;;17.20;8.20;;;;;;;17.68;76.34;98418.50;4883424;29;20148;-84
2023/08/25 04:35:55;;;;;;;12.73;8.75;;;;;;;17.55;77.30;98419.75;4890455;29;20072;-85
2023/08/25 04:38:40;;;;;;;16.73;7.97;;;;;;;17.83;76.51;98404.50;4882576;29;20071;-85
2023/08/25 04:41:23;;;;;;;12.77;7.25;;;;;;;17.81;76.36;98409.28;4885156;29;20051;-85
2023/08/25 04:44:07;;;;;;;16.65;7.57;;;;;;;17.74;76.75;98406.06;4883678;29;20051;-84
2023/08/25 04:46:51;;;;;;;12.32;7.15;;;;;;;17.81;76.46;98403.97;4886464;29;20105;-84
2023/08/25 04:49:35;;;;;;;12.95;6.57;;;;;;;17.75;76.80;98406.84;4883357;29;20506;-85
2023/08/25 04:52:20;;;;;;;10.95;6.25;;;;;;;17.75;76.86;98405.00;4891474;29;20404;-85
2023/08/25 04:55:05;;;;;;;10.10;5.65;;;;;;;17.73;76.82;98399.16;4888277;29;20065;-85
2023/08/25 04:57:49;;;;;;;8.13;5.43;;;;;;;17.59;77.73;98409.44;4888958;29;20051;-85
2023/08/25 05:00:33;;;;;;;13.85;5.75;;;;;;;17.56;77.78;98399.31;4889835;29;20048;-84
2023/08/25 05:03:17;;;;;;;18.15;6.78;;;;;;;17.57;77.79;98390.31;4888797;29;20121;-85
2023/08/25 05:06:01;;;;;;;11.75;5.72;;;;;;;17.40;78.09;98403.72;4893370;29;20054;-85
2023/08/25 05:08:46;;;;;;;10.70;5.57;;;;;;;17.77;76.80;98405.56;4887041;29;20093;-85
2023/08/25 05:11:33;;;;;;;12.82;6.05;;;;;;;17.38;77.54;98405.84;4886004;29;20451;-85
2023/08/25 05:14:18;;;;;;;12.18;5.43;;;;;;;17.43;77.49;98400.56;4888237;29;20067;-87
2023/08/25 05:17:02;;;;;;;8.43;5.97;;;;;;;17.33;78.47;98408.47;4888001;29;20076;-85
2023/08/25 05:19:46;;;;;;;13.02;7.25;;;;;;;17.55;77.88;98403.03;4885741;29;20051;-84
2023/08/25 05:22:30;;;;;;;12.35;6.65;;;;;;;17.55;78.18;98409.16;4887811;29;20051;-83
2023/08/25 05:25:14;;;;;;;13.68;7.00;;;;;;;17.69;77.76;98404.19;4884332;29;20060;-86
2023/08/25 05:27:58;;;;;;;11.60;6.70;;;;;;;17.94;77.54;98407.22;4888027;29;20055;-84
2023/08/25 05:30:46;;;;;;;14.70;7.57;;;;;;;18.10;77.05;98402.81;4888219;29;20101;-84
2023/08/25 05:33:30;;;;;;;11.77;6.97;;;;;;;18.19;76.64;98401.25;4889243;29;20048;-85
2023/08/25 05:36:14;;;;;;;13.00;7.20;;;;;;;18.22;76.75;98399.94;4888477;29;20128;-84
2023/08/25 05:38:58;;;;;;;11.93;6.25;;;;;;;18.19;76.88;98398.59;4889509;29;20105;-84
2023/08/25 05:41:42;;;;;;;11.90;6.07;;;;;;;18.15;76.60;98394.06;4887793;29;20460;-85
2023/08/25 05:44:26;;;;;;;9.30;5.20;;;;;;;18.05;76.59;98400.91;4889967;29;20055;-86
2023/08/25 05:47:10;;;;;;;10.20;5.20;;;;;;;18.02;76.25;98401.44;4886071;29;20088;-85
2023/08/25 05:49:54;;;;;;;8.68;4.95;;;;;;;17.91;76.19;98397.13;4887230;29;20124;-86
2023/08/25 05:52:39;;;;;;;10.95;5.05;;;;;;;17.86;76.46;98405.88;4887793;29;20056;-84
2023/08/25 05:55:23;;;;;;;8.18;4.22;;;;;;;17.88;76.53;98405.59;4888205;29;20593;-84
2023/08/25 05:58:07;;;;;;;10.60;6.00;;;;;;;17.97;76.81;98404.84;4887013;29;20044;-82
2023/08/25 06:00:51;;;;;;;12.98;8.48;;;;;;;17.91;78.28;98399.78;4888687;29;20070;-83
2023/08/25 06:03:35;;;;;;;21.90;10.88;;;;;;;17.92;79.02;98399.50;4885805;29;20104;-84
2023/08/25 06:06:19;;;;;;;23.67;11.25;;;;;;;17.91;78.82;98400.56;4885771;29;20047;-84
2023/08/25 06:09:05;;;;;;;21.17;11.80;;;;;;;18.12;78.43;98404.16;4886856;29;20051;-83
2023/08/25 06:11:49;;;;;;;17.08;9.70;;;;;;;18.23;78.33;98409.50;4892107;29;20047;-84
2023/08/25 06:14:35;;;;;;;13.15;7.75;;;;;;;18.03;78.96;98403.03;4891433;29;20051;-83
2023/08/25 06:17:19;;;;;;;13.55;7.32;;;;;;;17.88;79.48;98402.94;4889132;29;20039;-82
2023/08/25 06:20:03;;;;;;;15.85;6.53;;;;;;;17.95;79.04;98400.88;4885855;29;20055;-82
2023/08/25 06:22:47;;;;;;;11.57;5.38;;;;;;;18.08;78.71;98400.44;4887206;29;20079;-83
2023/08/25 06:25:32;;;;;;;14.35;5.80;;;;;;;18.32;77.80;98405.28;4881425;29;20052;-85
2023/08/25 06:28:16;;;;;;;9.40;5.88;;;;;;;18.32;77.59;98402.63;4880464;29;20043;-84
2023/08/25 06:31:00;;;;;;;10.93;5.82;;;;;;;18.28;77.67;98401.56;4889107;29;20087;-80
2023/08/25 06:33:45;;;;;;;10.98;5.60;;;;;;;18.72;76.93;98391.56;4881729;29;20048;-84
2023/08/25 06:36:32;;;;;;;8.32;5.32;;;;;;;18.73;76.53;98395.81;4890759;29;20088;-82
2023/08/25 06:39:16;;;;;;;9.55;4.80;;;;;;;18.82;76.77;98392.34;4886703;29;20464;-82
2023/08/25 06:42:00;;;;;;;9.10;5.47;;;;;;;19.04;76.53;98387.84;4882656;29;20415;-81
2023/08/25 06:44:44;;;;;;;12.23;6.30;;;;;;;18.99;76.72;98388.69;4883438;29;20104;-81
2023/08/25 06:47:30;;;;;;;8.63;5.07;;;;;;;18.76;77.62;98388.06;4885189;29;20550;-81
2023/08/25 06:50:14;;;;;;;11.02;5.18;;;;;;;19.08;77.08;98388.94;4887021;29;20120;-81
2023/08/25 06:52:59;;;;;;;12.50;5.97;;;;;;;18.92;77.12;98398.72;4883709;29;20039;-78
2023/08/25 06:55:43;;;;;;;7.88;5.13;;;;;;;19.34;76.38;98388.91;4884499;29;20111;-80
2023/08/25 06:58:27;;;;;;;11.18;4.57;;;;;;;19.29;76.19;98386.25;4883255;29;20108;-79
2023/08/25 07:01:11;;;;;;;9.82;4.45;;;;;;;19.26;76.31;98391.06;4885521;29;20087;-79
2023/08/25 07:03:55;;;;;;;9.32;4.50;;;;;;;19.42;75.85;98388.34;4883072;29;20088;-80
2023/08/25 07:06:39;;;;;;;11.38;4.50;;;;;;;19.74;75.21;98381.91;4885756;29;20047;-81
2023/08/25 07:09:23;;;;;;;8.13;4.63;;;;;;;19.71;74.98;98379.78;4880698;29;20055;-81
2023/08/25 07:12:08;;;;;;;10.57;5.25;;;;;;;19.98;74.36;98394.63;4880225;29;20055;-81
2023/08/25 07:14:53;;;;;;;10.73;4.45;;;;;;;20.08;74.12;98389.28;4880840;29;20165;-81
2023/08/25 07:17:37;;;;;;;8.80;4.40;;;;;;;20.74;73.17;98388.38;4884159;29;20514;-82
2023/08/25 07:20:21;;;;;;;6.80;3.78;;;;;;;20.27;73.63;98397.44;4892493;29;20487;-84
2023/08/25 07:23:05;;;;;;;10.52;3.50;;;;;;;20.53;73.00;98399.94;4887923;29;20055;-82
2023/08/25 07:25:52;;;;;;;7.65;4.07;;;;;;;20.83;71.87;98398.19;4886331;29;20449;-82
2023/08/25 07:28:36;;;;;;;5.82;4.32;;;;;;;20.47;73.09;98400.28;4885231;29;20116;-81
2023/08/25 07:31:20;;;;;;;8.93;4.85;;;;;;;21.28;71.46;98396.50;4880931;29;20099;-82
2023/08/25 07:34:04;;;;;;;7.38;4.28;;;;;;;21.28;71.58;98396.50;4884085;29;20047;-82
2023/08/25 07:36:48;;;;;;;6.28;3.35;;;;;;;21.16;71.08;98399.53;4884918;29;20048;-82
2023/08/25 07:39:32;;;;;;;4.32;3.55;;;;;;;21.40;70.99;98394.22;4881735;29;20177;-88
2023/08/25 07:42:16;;;;;;;7.55;3.83;;;;;;;21.75;69.41;98400.31;4882727;29;20043;-83
2023/08/25 07:45:00;;;;;;;7.28;2.88;;;;;;;22.38;68.01;98401.16;4880865;29;20116;-84
2023/08/25 07:47:44;;;;;;;5.65;2.50;;;;;;;21.45;69.63;98407.56;4883228;29;20467;-82
2023/08/25 07:50:29;;;;;;;6.13;2.60;;;;;;;22.25;68.56;98407.22;4883517;29;20412;-84
2023/08/25 07:53:14;;;;;;;4.88;2.63;;;;;;;22.34;67.99;98396.69;4882031;29;20491;-83
2023/08/25 07:55:58;;;;;;;4.15;2.47;;;;;;;22.07;68.59;98396.22;4883810;29;20096;-76
2023/08/25 07:58:42;;;;;;;4.95;2.22;;;;;;;21.95;68.58;98398.50;4884373;29;20523;-83
2023/08/25 08:01:26;;;;;;;4.07;2.20;;;;;;;22.07;68.20;98390.06;4884797;29;20124;-80
2023/08/25 08:04:10;;;;;;;4.72;2.38;;;;;;;22.55;67.77;98389.19;4885221;29;20052;-82
2023/08/25 08:06:55;;;;;;;6.47;2.40;;;;;;;22.89;66.91;98376.63;4882902;29;20120;-84
2023/08/25 08:09:39;;;;;;;6.45;2.15;;;;;;;22.97;66.32;98384.78;4887486;29;20442;-82
2023/08/25 08:12:23;;;;;;;5.72;2.53;;;;;;;22.89;66.16;98382.78;4885122;29;20449;-83
2023/08/25 08:15:08;;;;;;;5.80;2.33;;;;;;;24.08;64.76;98393.28;4882779;29;20168;-81
2023/08/25 08:17:53;;;;;;;9.57;2.80;;;;;;;24.67;64.34;98387.19;4884777;29;20619;-81
2023/08/25 08:20:37;;;;;;;3.88;2.20;;;;;;;24.89;64.00;98385.63;4885603;29;20044;-84
2023/08/25 08:23:21;;;;;;;4.97;2.65;;;;;;;25.03;61.76;98389.00;4885430;29;20052;-83
2023/08/25 08:26:05;;;;;;;4.85;2.13;;;;;;;24.85;61.67;98371.22;4884620;29;20080;-86
2023/08/25 08:28:49;;;;;;;5.13;2.45;;;;;;;24.87;62.21;98379.78;4882996;29;20040;-83
2023/08/25 08:31:33;;;;;;;4.60;2.40;;;;;;;24.98;61.51;98374.94;4883981;29;20097;-87
2023/08/25 08:34:17;;;;;;;3.83;2.50;;;;;;;24.23;62.03;98365.34;4890780;29;20400;-88
2023/08/25 08:37:05;;;;;;;3.97;1.98;;;;;;;24.09;62.17;98371.53;4892308;29;20048;-89
2023/08/25 08:39:50;;;;;;;3.30;1.88;;;;;;;24.30;62.65;98364.94;4889310;29;20048;-88
2023/08/25 08:42:37;;;;;;;2.88;2.00;;;;;;;24.14;62.64;98369.84;4885712;29;20076;-86
2023/08/25 08:45:24;;;;;;;3.13;2.00;;;;;;;23.84;62.31;98358.66;4891503;29;20080;-85
2023/08/25 08:48:09;;;;;;;5.45;2.05;;;;;;;24.24;61.82;98370.41;4890090;29;20530;-83
2023/08/25 08:50:54;;;;;;;6.53;2.38;;;;;;;24.63;62.31;98357.47;4888495;29;20044;-82
2023/08/25 08:53:39;;;;;;;8.00;2.50;;;;;;;24.72;62.45;98364.78;4887989;29;20391;-83
2023/08/25 08:56:23;;;;;;;3.72;2.10;;;;;;;24.49;61.66;98354.03;4887408;29;20052;-83
2023/08/25 08:59:07;;;;;;;4.28;2.22;;;;;;;24.42;62.50;98359.06;4889439;29;20100;-83
2023/08/25 09:01:53;;;;;;;4.47;2.17;;;;;;;24.47;62.17;98361.59;4884270;29;20471;-83
2023/08/25 09:04:39;;;;;;;3.90;2.03;;;;;;;24.52;62.03;98364.16;4888014;29;20093;-84
2023/08/25 09:07:27;;;;;;;6.97;2.10;;;;;;;23.80;62.27;98369.97;4887558;29;20184;-85
2023/08/25 09:10:12;;;;;;;4.10;2.28;;;;;;;23.40;62.59;98361.63;4892411;29;21113;-87
2023/08/25 09:12:56;;;;;;;2.95;1.90;;;;;;;23.30;62.95;98367.16;4892587;29;20424;-87
2023/08/25 09:15:41;;;;;;;4.20;2.00;;;;;;;22.92;63.64;98365.38;4891725;29;20060;-85
2023/08/25 09:18:36;;;;;;;7.43;2.63;;;;;;;23.28;63.38;98377.38;4890640;29;20456;-87
2023/08/25 09:21:23;;;;;;;3.13;1.70;;;;;;;23.27;62.39;98373.09;4880377;29;20131;-87
2023/08/25 09:24:07;;;;;;;6.43;2.10;;;;;;;22.77;62.66;98369.88;4886974;29;20059;-85
2023/08/25 09:26:52;;;;;;;4.70;2.05;;;;;;;23.02;63.25;98383.13;4890588;29;20071;-85
2023/08/25 09:29:40;;;;;;;5.05;2.17;;;;;;;22.98;63.25;98374.88;4888075;29;20044;-86
2023/08/25 09:32:25;;;;;;;2.60;1.92;;;;;;;22.97;62.90;98374.09;4891105;29;20468;-84
2023/08/25 09:35:14;;;;;;;5.65;2.15;;;;;;;22.97;63.17;98367.94;4888959;29;20131;-84
2023/08/25 09:37:58;;;;;;;2.30;2.10;;;;;;;23.54;62.06;98372.34;4885414;29;20121;-89
2023/08/25 09:40:46;;;;;;;3.55;1.55;;;;;;;23.28;61.96;98372.00;4883126;29;20092;-85
2023/08/25 09:43:31;;;;;;;4.60;2.13;;;;;;;23.80;61.56;98378.00;4889411;29;20043;-84
2023/08/25 09:46:15;;;;;;;4.38;2.10;;;;;;;24.24;60.33;98369.63;4887491;29;20461;-87
2023/08/25 09:49:03;;;;;;;5.38;2.35;;;;;;;24.31;60.56;98372.69;4881608;29;20051;-85
2023/08/25 09:51:50;;;;;;;3.80;2.15;;;;;;;24.43;59.43;98387.47;4886896;29;20078;-84
2023/08/25 09:54:34;;;;;;;3.28;1.95;;;;;;;24.72;59.88;98386.25;4885310;29;20100;-85
2023/08/25 09:57:19;;;;;;;3.55;1.90;;;;;;;24.95;59.48;98377.13;4885911;29;20067;-80
2023/08/25 10:00:08;;;;;;;2.15;1.95;;;;;;;25.08;59.16;98374.66;4889281;29;20052;-80
2023/08/25 10:02:53;;;;;;;3.88;1.92;;;;;;;24.98;58.97;98364.22;4889342;29;20183;-82
2023/08/25 10:05:38;;;;;;;2.75;1.90;;;;;;;24.71;58.83;98371.25;4889749;29;20035;-82
2023/08/25 10:08:23;;;;;;;2.05;1.77;;;;;;;25.17;59.13;98372.84;4891236;29;20064;-82
2023/08/25 10:11:08;;;;;;;3.63;1.92;;;;;;;25.67;57.96;98368.31;4885427;29;20097;-81
2023/08/25 10:13:54;;;;;;;3.38;2.03;;;;;;;25.67;57.60;98360.25;4889943;29;20052;-81
2023/08/25 10:16:52;;;;;;;2.40;1.90;;;;;;;25.92;57.70;98369.50;4889495;29;20176;-82
2023/08/25 10:19:38;;;;;;;4.95;1.95;;;;;;;26.26;58.60;98367.19;4888907;29;20075;-82
2023/08/25 10:22:24;;;;;;;5.53;2.70;;;;;;;26.32;56.65;98360.53;4886661;29;20452;-82
2023/08/25 10:25:10;;;;;;;2.83;2.20;;;;;;;26.47;56.44;98366.56;4886206;29;20138;-82
2023/08/25 10:27:56;;;;;;;4.07;2.40;;;;;;;26.54;56.22;98364.22;4884175;29;20108;-82
2023/08/25 10:30:40;;;;;;;3.05;1.92;;;;;;;26.91;55.98;98364.63;4885286;29;20048;-82
2023/08/25 10:33:25;;;;;;;2.83;1.80;;;;;;;26.78;55.57;98349.44;4882826;29;20112;-82
2023/08/25 10:36:14;;;;;;;3.45;2.10;;;;;;;26.02;55.56;98356.84;4885062;29;20406;-81
2023/08/25 10:38:58;;;;;;;7.18;2.10;;;;;;;25.34;56.08;98355.19;4886486;29;20031;-82
2023/08/25 10:41:43;;;;;;;4.60;2.00;;;;;;;25.03;56.35;98358.69;4885535;29;20096;-81
2023/08/25 10:44:27;;;;;;;4.40;2.03;;;;;;;25.37;56.63;98357.28;4888843;29;20052;-82
2023/08/25 10:47:11;;;;;;;2.33;1.80;;;;;;;25.04;57.91;98352.22;4887709;29;20103;-82
2023/08/25 10:50:01;;;;;;;4.95;2.33;;;;;;;24.97;57.64;98351.88;4885937;29;20431;-82
2023/08/25 10:52:48;;;;;;;3.10;2.15;;;;;;;24.42;58.09;98353.69;4884787;29;20395;-81
2023/08/25 10:55:33;;;;;;;4.40;2.53;;;;;;;24.55;58.50;98352.81;4886047;29;20410;-81
2023/08/25 10:58:17;;;;;;;4.15;2.10;;;;;;;24.57;58.30;98344.47;4889059;29;20044;-82
2023/08/25 11:01:01;;;;;;;3.83;2.20;;;;;;;24.66;58.42;98354.19;4886383;29;20522;-82
2023/08/25 11:03:48;;;;;;;4.15;2.38;;;;;;;24.75;58.62;98345.38;4882500;29;20044;-81
2023/08/25 11:06:40;;;;;;;2.28;1.92;;;;;;;25.16;57.72;98347.09;4886180;29;20112;-81
2023/08/25 11:09:25;;;;;;;6.18;2.10;;;;;;;25.55;57.42;98338.56;4882956;29;20502;-82
2023/08/25 11:12:10;;;;;;;4.70;2.08;;;;;;;25.37;57.13;98338.50;4889711;29;20052;-82
2023/08/25 11:14:53;;;;;;;5.00;2.53;;;;;;;24.80;57.08;98348.00;4885721;29;20073;-81
2023/08/25 11:17:38;;;;;;;4.55;2.40;;;;;;;25.19;56.78;98357.22;4884635;29;20177;-82
2023/08/25 11:20:22;;;;;;;3.63;2.45;;;;;;;25.61;56.90;98354.22;4885130;29;20055;-81
2023/08/25 11:23:05;;;;;;;3.22;2.00;;;;;;;24.44;57.19;98354.16;4884641;29;20100;-82
2023/08/25 11:25:49;;;;;;;3.97;2.25;;;;;;;24.84;57.30;98348.16;4888371;29;20572;-82
2023/08/25 11:28:34;;;;;;;3.45;2.25;;;;;;;25.28;56.76;98351.88;4881510;29;20085;-81
2023/08/25 11:31:22;;;;;;;3.22;2.10;;;;;;;25.00;56.33;98345.91;4885459;29;20056;-81
2023/08/25 11:34:07;;;;;;;3.45;2.30;;;;;;;25.12;56.02;98359.53;4885875;29;20048;-81
2023/08/25 11:36:52;;;;;;;2.63;2.17;;;;;;;25.67;55.27;98346.81;4885718;29;20044;-81
2023/08/25 11:39:43;;;;;;;4.05;2.00;;;;;;;26.14;55.44;98353.53;4888431;29;20092;-82
2023/08/25 11:42:28;;;;;;;5.72;2.40;;;;;;;26.31;54.27;98348.19;4885482;29;20517;-82
2023/08/25 11:45:13;;;;;;;2.33;2.05;;;;;;;27.20;53.67;98341.59;4887042;29;20077;-81
2023/08/25 11:47:57;;;;;;;5.20;2.20;;;;;;;27.47;52.88;98334.19;4888168;29;20155;-81
2023/08/25 11:50:41;;;;;;;5.30;2.50;;;;;;;27.63;52.57;98344.44;4885227;29;20574;-81
2023/08/25 11:53:24;;;;;;;4.05;2.58;;;;;;;27.52;52.29;98333.25;4885756;29;20044;-81
2023/08/25 11:56:14;;;;;;;4.45;2.50;;;;;;;26.96;52.54;98327.91;4882221;29;20114;-80
2023/08/25 11:59:00;;;;;;;4.13;2.30;;;;;;;27.32;52.66;98329.38;4887334;29;20047;-81
2023/08/25 12:01:46;;;;;;;3.85;2.38;;;;;;;27.71;51.37;98330.16;4886419;29;20097;-81
2023/08/25 12:04:31;;;;;;;3.17;2.38;;;;;;;27.19;50.74;98325.75;4886620;29;20110;-80
2023/08/25 12:07:23;;;;;;;5.10;2.30;;;;;;;27.65;51.23;98318.75;4884378;29;20044;-80
2023/08/25 12:10:07;;;;;;;2.53;2.33;;;;;;;27.96;52.21;98319.50;4889027;29;20060;-82
2023/08/25 12:12:53;;;;;;;3.33;2.40;;;;;;;28.41;51.01;98323.47;4890534;29;20092;-81
2023/08/25 12:15:45;;;;;;;7.03;2.50;;;;;;;27.91;50.82;98323.19;4888652;29;20043;-82
2023/08/25 12:18:37;;;;;;;4.13;2.17;;;;;;;27.88;50.15;98325.75;4890050;29;20052;-81
2023/08/25 12:21:21;;;;;;;3.33;2.10;;;;;;;28.05;50.68;98320.22;4891013;29;20407;-82
2023/08/25 12:24:05;;;;;;;5.32;2.20;;;;;;;27.40;51.22;98319.63;4890988;29;20051;-81
2023/08/25 12:26:49;;;;;;;3.53;2.50;;;;;;;27.29;51.54;98316.50;4884677;29;20109;-81
2023/08/25 12:29:34;;;;;;;4.05;2.20;;;;;;;28.21;51.00;98325.06;4888361;29;20581;-82
2023/08/25 12:32:18;;;;;;;5.47;2.53;;;;;;;28.01;51.01;98315.84;4888868;29;20047;-81
2023/08/25 12:35:02;;;;;;;4.57;2.53;;;;;;;28.34;50.81;98321.31;4889275;29;20055;-81
2023/08/25 12:37:46;;;;;;;5.82;2.83;;;;;;;28.39;50.04;98322.22;4884659;29;20059;-82
2023/08/25 12:40:30;;;;;;;8.63;2.70;;;;;;;28.41;51.14;98315.38;4892613;29;20051;-81
2023/08/25 12:43:13;;;;;;;8.57;3.03;;;;;;;28.50;49.81;98315.31;4891015;29;20040;-81
2023/08/25 12:45:57;;;;;;;4.60;2.95;;;;;;;28.98;49.94;98317.69;4886953;29;20597;-80
2023/08/25 12:48:41;;;;;;;5.40;2.78;;;;;;;27.62;51.13;98307.81;4890670;29;20056;-82
2023/08/25 12:51:25;;;;;;;9.35;2.88;;;;;;;27.09;52.37;98326.91;4888487;29;20044;-81
2023/08/25 12:54:14;;;;;;;5.47;3.22;;;;;;;27.34;51.82;98319.81;4887577;29;20531;-80
2023/08/25 12:56:57;;;;;;;9.65;3.88;;;;;;;26.71;52.80;98325.72;4889633;29;20567;-81